Avondale, Colorado
Current Conditions -  °F | °C
As of 1:53 PM on Friday 19 Dec 2014 (Local Time) from KPUB Reporting Station
Clear Clear  
Wind Chill: 48°   Ceiling: Unl
Heat Index: 48°   Visibility: 10mi
Dew Point: 19°   Wind: 0mph
Humidity: 32%   Direction: NA
Pressure: 30.02"   Gusts: NA
Location:  38.24°N, 104.35°W
Report Text: KPUB 192053Z 00000KT 10SM CLR 09/M07 A3002 RMK AO2 SLP177 T00891072 56025
Loading
Personal Weather Stations






























Interactive Weather Map New forecast layout! Learn more

10-Day Weather Forecast

Advertisements
Track Severe Weather on mobile